sensor_id;sensor_type;location;lat;lon;timestamp;P1;durP1;ratioP1;P2;durP2;ratioP2
15116;SDS011;7659;51.038;13.786;2023-07-13T00:01:57;4.78;;;1.58;;
15116;SDS011;7659;51.038;13.786;2023-07-13T00:04:24;5.72;;;1.35;;
15116;SDS011;7659;51.038;13.786;2023-07-13T00:06:52;2.88;;;1.60;;
15116;SDS011;7659;51.038;13.786;2023-07-13T00:09:18;3.03;;;1.50;;
15116;SDS011;7659;51.038;13.786;2023-07-13T00:11:44;6.22;;;2.17;;
15116;SDS011;7659;51.038;13.786;2023-07-13T00:14:09;3.30;;;1.48;;
15116;SDS011;7659;51.038;13.786;2023-07-13T00:16:35;2.55;;;1.40;;
15116;SDS011;7659;51.038;13.786;2023-07-13T00:19:01;2.08;;;1.65;;
15116;SDS011;7659;51.038;13.786;2023-07-13T00:21:26;4.50;;;1.55;;
15116;SDS011;7659;51.038;13.786;2023-07-13T00:23:52;2.72;;;1.50;;
15116;SDS011;7659;51.038;13.786;2023-07-13T00:26:17;3.35;;;1.90;;
15116;SDS011;7659;51.038;13.786;2023-07-13T00:28:43;1.75;;;1.42;;
15116;SDS011;7659;51.038;13.786;2023-07-13T00:31:09;2.33;;;1.40;;
15116;SDS011;7659;51.038;13.786;2023-07-13T00:33:35;2.38;;;1.40;;
15116;SDS011;7659;51.038;13.786;2023-07-13T00:36:00;3.40;;;1.70;;
15116;SDS011;7659;51.038;13.786;2023-07-13T00:38:26;2.67;;;1.70;;
15116;SDS011;7659;51.038;13.786;2023-07-13T00:40:51;2.45;;;1.27;;
15116;SDS011;7659;51.038;13.786;2023-07-13T00:43:18;2.65;;;1.50;;
15116;SDS011;7659;51.038;13.786;2023-07-13T00:48:13;6.57;;;1.60;;
15116;SDS011;7659;51.038;13.786;2023-07-13T00:50:39;3.55;;;1.48;;
15116;SDS011;7659;51.038;13.786;2023-07-13T00:53:05;4.57;;;1.70;;
15116;SDS011;7659;51.038;13.786;2023-07-13T00:55:31;4.90;;;2.00;;
15116;SDS011;7659;51.038;13.786;2023-07-13T00:57:57;4.22;;;1.85;;
15116;SDS011;7659;51.038;13.786;2023-07-13T01:00:23;3.10;;;1.65;;
15116;SDS011;7659;51.038;13.786;2023-07-13T01:02:51;3.00;;;1.88;;
15116;SDS011;7659;51.038;13.786;2023-07-13T01:05:17;2.85;;;1.80;;
15116;SDS011;7659;51.038;13.786;2023-07-13T01:07:43;5.40;;;1.98;;
15116;SDS011;7659;51.038;13.786;2023-07-13T01:10:10;2.63;;;1.70;;
15116;SDS011;7659;51.038;13.786;2023-07-13T01:12:36;4.00;;;2.08;;
15116;SDS011;7659;51.038;13.786;2023-07-13T01:15:02;4.80;;;2.05;;
15116;SDS011;7659;51.038;13.786;2023-07-13T01:17:28;4.97;;;2.60;;
15116;SDS011;7659;51.038;13.786;2023-07-13T01:19:54;7.53;;;2.53;;
15116;SDS011;7659;51.038;13.786;2023-07-13T01:22:22;6.43;;;2.20;;
15116;SDS011;7659;51.038;13.786;2023-07-13T01:24:51;6.72;;;2.78;;
15116;SDS011;7659;51.038;13.786;2023-07-13T01:27:17;3.92;;;2.33;;
15116;SDS011;7659;51.038;13.786;2023-07-13T01:29:45;6.65;;;2.45;;
15116;SDS011;7659;51.038;13.786;2023-07-13T01:32:14;7.85;;;2.80;;
15116;SDS011;7659;51.038;13.786;2023-07-13T01:34:40;6.13;;;3.03;;
15116;SDS011;7659;51.038;13.786;2023-07-13T01:37:09;5.00;;;2.60;;
15116;SDS011;7659;51.038;13.786;2023-07-13T01:39:35;5.63;;;2.72;;
15116;SDS011;7659;51.038;13.786;2023-07-13T01:42:02;6.45;;;2.47;;
15116;SDS011;7659;51.038;13.786;2023-07-13T01:44:27;6.50;;;2.80;;
15116;SDS011;7659;51.038;13.786;2023-07-13T01:46:53;4.47;;;2.13;;
15116;SDS011;7659;51.038;13.786;2023-07-13T01:49:18;6.05;;;2.80;;
15116;SDS011;7659;51.038;13.786;2023-07-13T01:51:44;7.60;;;2.90;;
15116;SDS011;7659;51.038;13.786;2023-07-13T01:54:10;4.68;;;2.55;;
15116;SDS011;7659;51.038;13.786;2023-07-13T01:56:35;7.63;;;2.83;;
15116;SDS011;7659;51.038;13.786;2023-07-13T01:59:01;4.20;;;2.50;;
15116;SDS011;7659;51.038;13.786;2023-07-13T02:01:27;5.03;;;2.70;;
15116;SDS011;7659;51.038;13.786;2023-07-13T02:03:53;3.97;;;2.92;;
15116;SDS011;7659;51.038;13.786;2023-07-13T02:06:19;7.57;;;2.97;;
15116;SDS011;7659;51.038;13.786;2023-07-13T02:08:47;6.03;;;3.00;;
15116;SDS011;7659;51.038;13.786;2023-07-13T02:11:12;5.57;;;2.90;;
15116;SDS011;7659;51.038;13.786;2023-07-13T02:13:38;6.50;;;3.03;;
15116;SDS011;7659;51.038;13.786;2023-07-13T02:16:03;4.38;;;2.70;;
15116;SDS011;7659;51.038;13.786;2023-07-13T02:18:29;6.00;;;2.63;;
15116;SDS011;7659;51.038;13.786;2023-07-13T02:20:54;6.50;;;3.10;;
15116;SDS011;7659;51.038;13.786;2023-07-13T02:23:20;3.28;;;2.40;;
15116;SDS011;7659;51.038;13.786;2023-07-13T02:25:45;6.07;;;2.80;;
15116;SDS011;7659;51.038;13.786;2023-07-13T02:28:11;7.30;;;2.95;;
15116;SDS011;7659;51.038;13.786;2023-07-13T02:30:37;4.25;;;3.00;;
15116;SDS011;7659;51.038;13.786;2023-07-13T02:33:03;9.75;;;3.22;;
15116;SDS011;7659;51.038;13.786;2023-07-13T02:35:29;8.32;;;3.15;;
15116;SDS011;7659;51.038;13.786;2023-07-13T02:37:57;5.30;;;2.35;;
15116;SDS011;7659;51.038;13.786;2023-07-13T02:40:23;6.13;;;3.22;;
15116;SDS011;7659;51.038;13.786;2023-07-13T02:42:48;4.38;;;3.15;;
15116;SDS011;7659;51.038;13.786;2023-07-13T02:45:14;6.50;;;2.83;;
15116;SDS011;7659;51.038;13.786;2023-07-13T02:47:40;6.05;;;2.85;;
15116;SDS011;7659;51.038;13.786;2023-07-13T02:50:06;7.32;;;3.30;;
15116;SDS011;7659;51.038;13.786;2023-07-13T02:52:31;6.20;;;3.17;;
15116;SDS011;7659;51.038;13.786;2023-07-13T02:54:57;7.18;;;3.20;;
15116;SDS011;7659;51.038;13.786;2023-07-13T02:57:22;6.00;;;3.42;;
15116;SDS011;7659;51.038;13.786;2023-07-13T02:59:48;13.45;;;3.83;;
15116;SDS011;7659;51.038;13.786;2023-07-13T03:02:15;7.78;;;3.50;;
15116;SDS011;7659;51.038;13.786;2023-07-13T03:04:40;6.72;;;3.20;;
15116;SDS011;7659;51.038;13.786;2023-07-13T03:07:06;9.85;;;3.40;;
15116;SDS011;7659;51.038;13.786;2023-07-13T03:09:35;7.38;;;3.20;;
15116;SDS011;7659;51.038;13.786;2023-07-13T03:12:03;5.07;;;3.15;;
15116;SDS011;7659;51.038;13.786;2023-07-13T03:14:31;11.07;;;3.78;;
15116;SDS011;7659;51.038;13.786;2023-07-13T03:16:57;6.97;;;3.85;;
15116;SDS011;7659;51.038;13.786;2023-07-13T03:19:26;14.68;;;3.97;;
15116;SDS011;7659;51.038;13.786;2023-07-13T03:21:52;8.45;;;3.42;;
15116;SDS011;7659;51.038;13.786;2023-07-13T03:24:17;6.68;;;3.80;;
15116;SDS011;7659;51.038;13.786;2023-07-13T03:26:43;9.30;;;3.83;;
15116;SDS011;7659;51.038;13.786;2023-07-13T03:29:09;9.95;;;3.75;;
15116;SDS011;7659;51.038;13.786;2023-07-13T03:31:36;6.63;;;3.22;;
15116;SDS011;7659;51.038;13.786;2023-07-13T03:34:01;8.02;;;3.80;;
15116;SDS011;7659;51.038;13.786;2023-07-13T03:36:29;5.68;;;3.25;;
15116;SDS011;7659;51.038;13.786;2023-07-13T03:38:58;7.20;;;3.67;;
15116;SDS011;7659;51.038;13.786;2023-07-13T03:41:30;7.60;;;3.58;;
15116;SDS011;7659;51.038;13.786;2023-07-13T03:43:57;5.75;;;3.22;;
15116;SDS011;7659;51.038;13.786;2023-07-13T03:46:24;11.45;;;3.40;;
15116;SDS011;7659;51.038;13.786;2023-07-13T03:48:49;6.30;;;3.35;;
15116;SDS011;7659;51.038;13.786;2023-07-13T03:51:17;6.70;;;3.35;;
15116;SDS011;7659;51.038;13.786;2023-07-13T03:53:43;7.13;;;3.55;;
15116;SDS011;7659;51.038;13.786;2023-07-13T03:56:11;7.80;;;3.50;;
15116;SDS011;7659;51.038;13.786;2023-07-13T03:58:38;5.45;;;3.33;;
15116;SDS011;7659;51.038;13.786;2023-07-13T04:01:11;8.77;;;3.65;;
15116;SDS011;7659;51.038;13.786;2023-07-13T04:03:38;7.60;;;3.58;;
15116;SDS011;7659;51.038;13.786;2023-07-13T04:06:04;6.40;;;3.70;;
15116;SDS011;7659;51.038;13.786;2023-07-13T04:08:31;4.75;;;3.25;;
15116;SDS011;7659;51.038;13.786;2023-07-13T04:10:57;6.05;;;3.50;;
15116;SDS011;7659;51.038;13.786;2023-07-13T04:13:23;7.18;;;3.58;;
15116;SDS011;7659;51.038;13.786;2023-07-13T04:15:49;11.20;;;3.45;;
15116;SDS011;7659;51.038;13.786;2023-07-13T04:18:15;9.15;;;3.30;;
15116;SDS011;7659;51.038;13.786;2023-07-13T04:20:40;5.65;;;3.25;;
15116;SDS011;7659;51.038;13.786;2023-07-13T04:23:06;7.63;;;3.20;;
15116;SDS011;7659;51.038;13.786;2023-07-13T04:25:31;5.70;;;3.53;;
15116;SDS011;7659;51.038;13.786;2023-07-13T04:27:57;7.97;;;2.83;;
15116;SDS011;7659;51.038;13.786;2023-07-13T04:30:22;5.32;;;3.00;;
15116;SDS011;7659;51.038;13.786;2023-07-13T04:32:49;7.03;;;3.13;;
15116;SDS011;7659;51.038;13.786;2023-07-13T04:35:15;3.95;;;2.90;;
15116;SDS011;7659;51.038;13.786;2023-07-13T04:37:40;5.25;;;2.92;;
15116;SDS011;7659;51.038;13.786;2023-07-13T04:40:06;5.97;;;3.20;;
15116;SDS011;7659;51.038;13.786;2023-07-13T04:42:32;6.47;;;3.50;;
15116;SDS011;7659;51.038;13.786;2023-07-13T04:44:59;6.10;;;2.92;;
15116;SDS011;7659;51.038;13.786;2023-07-13T04:47:25;6.20;;;3.35;;
15116;SDS011;7659;51.038;13.786;2023-07-13T04:49:50;4.90;;;2.78;;
15116;SDS011;7659;51.038;13.786;2023-07-13T04:52:16;6.85;;;3.47;;
15116;SDS011;7659;51.038;13.786;2023-07-13T04:54:41;5.88;;;2.67;;
15116;SDS011;7659;51.038;13.786;2023-07-13T04:57:07;6.43;;;3.60;;
15116;SDS011;7659;51.038;13.786;2023-07-13T04:59:33;6.43;;;3.05;;
15116;SDS011;7659;51.038;13.786;2023-07-13T05:01:58;11.38;;;3.08;;
15116;SDS011;7659;51.038;13.786;2023-07-13T05:04:24;5.15;;;3.20;;
15116;SDS011;7659;51.038;13.786;2023-07-13T05:06:49;9.02;;;3.25;;
15116;SDS011;7659;51.038;13.786;2023-07-13T05:09:15;6.43;;;3.38;;
15116;SDS011;7659;51.038;13.786;2023-07-13T05:11:40;6.88;;;3.00;;
15116;SDS011;7659;51.038;13.786;2023-07-13T05:14:06;6.85;;;2.92;;
15116;SDS011;7659;51.038;13.786;2023-07-13T05:16:31;7.40;;;3.13;;
15116;SDS011;7659;51.038;13.786;2023-07-13T05:18:57;7.15;;;3.08;;
15116;SDS011;7659;51.038;13.786;2023-07-13T05:21:23;5.18;;;3.15;;
15116;SDS011;7659;51.038;13.786;2023-07-13T05:23:50;8.15;;;3.20;;
15116;SDS011;7659;51.038;13.786;2023-07-13T05:26:15;6.60;;;3.30;;
15116;SDS011;7659;51.038;13.786;2023-07-13T05:28:41;7.75;;;3.65;;
15116;SDS011;7659;51.038;13.786;2023-07-13T05:31:07;7.47;;;3.25;;
15116;SDS011;7659;51.038;13.786;2023-07-13T05:33:33;7.40;;;3.15;;
15116;SDS011;7659;51.038;13.786;2023-07-13T05:35:59;4.22;;;3.20;;
15116;SDS011;7659;51.038;13.786;2023-07-13T05:38:26;6.78;;;3.20;;
15116;SDS011;7659;51.038;13.786;2023-07-13T05:40:53;8.90;;;3.00;;
15116;SDS011;7659;51.038;13.786;2023-07-13T05:43:19;6.43;;;3.58;;
15116;SDS011;7659;51.038;13.786;2023-07-13T05:45:44;8.43;;;3.45;;
15116;SDS011;7659;51.038;13.786;2023-07-13T05:48:10;8.35;;;3.60;;
15116;SDS011;7659;51.038;13.786;2023-07-13T05:50:35;9.13;;;3.58;;
15116;SDS011;7659;51.038;13.786;2023-07-13T05:53:01;5.57;;;3.58;;
15116;SDS011;7659;51.038;13.786;2023-07-13T05:55:26;6.32;;;3.42;;
15116;SDS011;7659;51.038;13.786;2023-07-13T05:57:52;5.45;;;3.47;;
15116;SDS011;7659;51.038;13.786;2023-07-13T06:00:17;8.43;;;4.20;;
15116;SDS011;7659;51.038;13.786;2023-07-13T06:02:43;11.32;;;4.03;;
15116;SDS011;7659;51.038;13.786;2023-07-13T06:05:08;13.35;;;4.10;;
15116;SDS011;7659;51.038;13.786;2023-07-13T06:07:34;4.93;;;2.95;;
15116;SDS011;7659;51.038;13.786;2023-07-13T06:09:59;8.32;;;3.05;;
15116;SDS011;7659;51.038;13.786;2023-07-13T06:12:25;5.38;;;2.65;;
15116;SDS011;7659;51.038;13.786;2023-07-13T06:14:51;9.48;;;2.65;;
15116;SDS011;7659;51.038;13.786;2023-07-13T06:17:17;7.20;;;2.55;;
15116;SDS011;7659;51.038;13.786;2023-07-13T06:19:43;6.65;;;2.70;;
15116;SDS011;7659;51.038;13.786;2023-07-13T06:22:08;11.50;;;3.28;;
15116;SDS011;7659;51.038;13.786;2023-07-13T06:24:34;5.18;;;3.55;;
15116;SDS011;7659;51.038;13.786;2023-07-13T06:26:59;5.90;;;3.15;;
15116;SDS011;7659;51.038;13.786;2023-07-13T06:29:25;8.82;;;3.35;;
15116;SDS011;7659;51.038;13.786;2023-07-13T06:31:50;7.22;;;3.75;;
15116;SDS011;7659;51.038;13.786;2023-07-13T06:34:15;6.88;;;3.10;;
15116;SDS011;7659;51.038;13.786;2023-07-13T06:36:41;6.47;;;2.38;;
15116;SDS011;7659;51.038;13.786;2023-07-13T06:39:06;5.50;;;2.53;;
15116;SDS011;7659;51.038;13.786;2023-07-13T06:41:32;8.70;;;2.60;;
15116;SDS011;7659;51.038;13.786;2023-07-13T06:43:58;6.82;;;2.53;;
15116;SDS011;7659;51.038;13.786;2023-07-13T06:46:24;8.55;;;2.67;;
15116;SDS011;7659;51.038;13.786;2023-07-13T06:48:49;6.38;;;2.38;;
15116;SDS011;7659;51.038;13.786;2023-07-13T06:51:15;10.73;;;2.25;;
15116;SDS011;7659;51.038;13.786;2023-07-13T06:53:41;6.10;;;2.30;;
15116;SDS011;7659;51.038;13.786;2023-07-13T06:56:07;6.55;;;2.17;;
15116;SDS011;7659;51.038;13.786;2023-07-13T06:58:33;4.80;;;2.25;;
15116;SDS011;7659;51.038;13.786;2023-07-13T07:00:59;5.72;;;2.40;;
15116;SDS011;7659;51.038;13.786;2023-07-13T07:03:24;5.45;;;2.28;;
15116;SDS011;7659;51.038;13.786;2023-07-13T07:05:50;7.30;;;2.22;;
15116;SDS011;7659;51.038;13.786;2023-07-13T07:08:15;9.90;;;2.10;;
15116;SDS011;7659;51.038;13.786;2023-07-13T07:10:41;5.15;;;1.52;;
15116;SDS011;7659;51.038;13.786;2023-07-13T07:13:07;4.03;;;1.73;;
15116;SDS011;7659;51.038;13.786;2023-07-13T07:15:33;4.78;;;2.00;;
15116;SDS011;7659;51.038;13.786;2023-07-13T07:17:59;5.85;;;2.35;;
15116;SDS011;7659;51.038;13.786;2023-07-13T07:20:24;8.15;;;1.98;;
15116;SDS011;7659;51.038;13.786;2023-07-13T07:22:50;7.03;;;1.88;;
15116;SDS011;7659;51.038;13.786;2023-07-13T07:25:15;6.75;;;2.10;;
15116;SDS011;7659;51.038;13.786;2023-07-13T07:27:41;5.45;;;2.40;;
15116;SDS011;7659;51.038;13.786;2023-07-13T07:30:06;6.60;;;2.10;;
15116;SDS011;7659;51.038;13.786;2023-07-13T07:32:32;8.60;;;1.90;;
15116;SDS011;7659;51.038;13.786;2023-07-13T07:34:58;6.00;;;1.70;;
15116;SDS011;7659;51.038;13.786;2023-07-13T07:37:23;6.63;;;2.22;;
15116;SDS011;7659;51.038;13.786;2023-07-13T07:39:49;4.18;;;1.55;;
15116;SDS011;7659;51.038;13.786;2023-07-13T07:42:14;6.85;;;1.98;;
15116;SDS011;7659;51.038;13.786;2023-07-13T07:44:40;5.15;;;1.80;;
15116;SDS011;7659;51.038;13.786;2023-07-13T07:47:06;5.95;;;1.90;;
15116;SDS011;7659;51.038;13.786;2023-07-13T07:49:32;3.58;;;1.40;;
15116;SDS011;7659;51.038;13.786;2023-07-13T07:51:57;2.97;;;1.65;;
15116;SDS011;7659;51.038;13.786;2023-07-13T07:54:23;4.20;;;1.48;;
15116;SDS011;7659;51.038;13.786;2023-07-13T07:56:48;7.70;;;1.20;;
15116;SDS011;7659;51.038;13.786;2023-07-13T07:59:14;3.80;;;1.50;;
15116;SDS011;7659;51.038;13.786;2023-07-13T08:01:39;3.38;;;1.35;;
15116;SDS011;7659;51.038;13.786;2023-07-13T08:04:05;5.95;;;1.80;;
15116;SDS011;7659;51.038;13.786;2023-07-13T08:06:33;3.55;;;1.13;;
15116;SDS011;7659;51.038;13.786;2023-07-13T08:08:59;4.70;;;1.33;;
15116;SDS011;7659;51.038;13.786;2023-07-13T08:11:25;7.32;;;1.65;;
15116;SDS011;7659;51.038;13.786;2023-07-13T08:13:51;3.33;;;1.20;;
15116;SDS011;7659;51.038;13.786;2023-07-13T08:16:16;5.25;;;1.23;;
15116;SDS011;7659;51.038;13.786;2023-07-13T08:18:42;3.95;;;1.45;;
15116;SDS011;7659;51.038;13.786;2023-07-13T08:21:07;3.30;;;1.15;;
15116;SDS011;7659;51.038;13.786;2023-07-13T08:23:33;3.10;;;1.45;;
15116;SDS011;7659;51.038;13.786;2023-07-13T08:25:59;7.60;;;1.92;;
15116;SDS011;7659;51.038;13.786;2023-07-13T08:28:26;7.68;;;1.60;;
15116;SDS011;7659;51.038;13.786;2023-07-13T08:30:52;6.45;;;1.65;;
15116;SDS011;7659;51.038;13.786;2023-07-13T08:33:18;6.70;;;1.52;;
15116;SDS011;7659;51.038;13.786;2023-07-13T08:35:47;4.30;;;1.25;;
15116;SDS011;7659;51.038;13.786;2023-07-13T08:38:13;5.15;;;1.48;;
15116;SDS011;7659;51.038;13.786;2023-07-13T08:40:38;5.03;;;1.50;;
15116;SDS011;7659;51.038;13.786;2023-07-13T08:43:04;4.68;;;1.30;;
15116;SDS011;7659;51.038;13.786;2023-07-13T08:45:32;4.00;;;1.17;;
15116;SDS011;7659;51.038;13.786;2023-07-13T08:48:03;7.00;;;1.70;;
15116;SDS011;7659;51.038;13.786;2023-07-13T08:50:34;4.30;;;1.15;;
15116;SDS011;7659;51.038;13.786;2023-07-13T08:53:01;6.82;;;2.08;;
15116;SDS011;7659;51.038;13.786;2023-07-13T08:55:29;8.55;;;1.42;;
15116;SDS011;7659;51.038;13.786;2023-07-13T08:58:01;7.20;;;1.38;;
15116;SDS011;7659;51.038;13.786;2023-07-13T09:00:31;4.28;;;1.45;;
15116;SDS011;7659;51.038;13.786;2023-07-13T09:02:59;10.98;;;1.83;;
15116;SDS011;7659;51.038;13.786;2023-07-13T09:05:37;3.83;;;1.33;;
15116;SDS011;7659;51.038;13.786;2023-07-13T09:10:49;5.90;;;1.23;;
15116;SDS011;7659;51.038;13.786;2023-07-13T09:15:49;3.88;;;1.50;;
15116;SDS011;7659;51.038;13.786;2023-07-13T09:23:07;4.30;;;1.10;;
15116;SDS011;7659;51.038;13.786;2023-07-13T09:25:36;4.22;;;1.40;;
15116;SDS011;7659;51.038;13.786;2023-07-13T09:28:08;7.63;;;1.35;;
15116;SDS011;7659;51.038;13.786;2023-07-13T09:33:20;5.35;;;1.50;;
15116;SDS011;7659;51.038;13.786;2023-07-13T09:35:45;4.95;;;1.38;;
15116;SDS011;7659;51.038;13.786;2023-07-13T09:38:12;5.57;;;1.63;;
15116;SDS011;7659;51.038;13.786;2023-07-13T09:40:40;5.03;;;1.52;;
15116;SDS011;7659;51.038;13.786;2023-07-13T09:43:08;6.80;;;1.77;;
15116;SDS011;7659;51.038;13.786;2023-07-13T09:45:36;5.05;;;1.60;;
15116;SDS011;7659;51.038;13.786;2023-07-13T09:48:11;4.43;;;1.60;;
15116;SDS011;7659;51.038;13.786;2023-07-13T09:50:40;5.30;;;1.25;;
15116;SDS011;7659;51.038;13.786;2023-07-13T09:53:16;3.45;;;1.33;;
15116;SDS011;7659;51.038;13.786;2023-07-13T09:55:42;5.85;;;1.60;;
15116;SDS011;7659;51.038;13.786;2023-07-13T10:00:40;6.43;;;1.63;;
15116;SDS011;7659;51.038;13.786;2023-07-13T10:05:45;5.95;;;1.33;;
15116;SDS011;7659;51.038;13.786;2023-07-13T10:08:27;5.10;;;1.20;;
15116;SDS011;7659;51.038;13.786;2023-07-13T10:10:54;2.88;;;1.15;;
15116;SDS011;7659;51.038;13.786;2023-07-13T10:15:57;12.40;;;1.42;;
15116;SDS011;7659;51.038;13.786;2023-07-13T10:18:23;6.53;;;1.70;;
15116;SDS011;7659;51.038;13.786;2023-07-13T10:20:50;5.18;;;1.50;;
15116;SDS011;7659;51.038;13.786;2023-07-13T10:23:20;3.53;;;1.00;;
15116;SDS011;7659;51.038;13.786;2023-07-13T10:25:47;7.55;;;1.92;;
15116;SDS011;7659;51.038;13.786;2023-07-13T10:30:44;6.60;;;1.20;;
15116;SDS011;7659;51.038;13.786;2023-07-13T10:33:11;4.10;;;1.30;;
15116;SDS011;7659;51.038;13.786;2023-07-13T10:35:37;4.32;;;1.25;;
15116;SDS011;7659;51.038;13.786;2023-07-13T10:38:05;6.25;;;1.33;;
15116;SDS011;7659;51.038;13.786;2023-07-13T10:40:39;3.92;;;1.20;;
15116;SDS011;7659;51.038;13.786;2023-07-13T10:43:09;2.58;;;1.20;;
15116;SDS011;7659;51.038;13.786;2023-07-13T10:45:38;3.78;;;2.00;;
15116;SDS011;7659;51.038;13.786;2023-07-13T10:48:03;3.92;;;1.35;;
15116;SDS011;7659;51.038;13.786;2023-07-13T10:50:29;4.53;;;1.17;;
15116;SDS011;7659;51.038;13.786;2023-07-13T10:53:02;4.90;;;1.27;;
15116;SDS011;7659;51.038;13.786;2023-07-13T10:55:36;4.25;;;1.30;;
15116;SDS011;7659;51.038;13.786;2023-07-13T10:58:12;3.88;;;1.40;;
15116;SDS011;7659;51.038;13.786;2023-07-13T11:06:08;5.20;;;1.27;;
15116;SDS011;7659;51.038;13.786;2023-07-13T11:08:38;4.10;;;1.17;;
15116;SDS011;7659;51.038;13.786;2023-07-13T11:18:52;7.80;;;1.48;;
15116;SDS011;7659;51.038;13.786;2023-07-13T11:21:19;8.98;;;1.00;;
15116;SDS011;7659;51.038;13.786;2023-07-13T11:23:51;3.13;;;1.02;;
15116;SDS011;7659;51.038;13.786;2023-07-13T11:29:07;4.72;;;0.95;;
15116;SDS011;7659;51.038;13.786;2023-07-13T11:31:33;3.22;;;1.13;;
15116;SDS011;7659;51.038;13.786;2023-07-13T11:33:58;7.63;;;1.42;;
15116;SDS011;7659;51.038;13.786;2023-07-13T11:36:28;4.07;;;1.10;;
15116;SDS011;7659;51.038;13.786;2023-07-13T11:38:57;5.68;;;1.02;;
15116;SDS011;7659;51.038;13.786;2023-07-13T11:41:27;2.83;;;1.20;;
15116;SDS011;7659;51.038;13.786;2023-07-13T11:43:55;10.18;;;1.40;;
15116;SDS011;7659;51.038;13.786;2023-07-13T11:46:22;6.35;;;1.30;;
15116;SDS011;7659;51.038;13.786;2023-07-13T11:48:48;5.53;;;1.67;;
15116;SDS011;7659;51.038;13.786;2023-07-13T11:51:19;6.95;;;1.52;;
15116;SDS011;7659;51.038;13.786;2023-07-13T11:53:46;4.45;;;1.27;;
15116;SDS011;7659;51.038;13.786;2023-07-13T11:56:12;3.30;;;1.23;;
15116;SDS011;7659;51.038;13.786;2023-07-13T11:58:38;5.30;;;1.20;;
15116;SDS011;7659;51.038;13.786;2023-07-13T12:01:03;7.75;;;1.38;;
15116;SDS011;7659;51.038;13.786;2023-07-13T12:03:32;5.05;;;1.02;;
15116;SDS011;7659;51.038;13.786;2023-07-13T12:06:03;5.70;;;1.30;;
15116;SDS011;7659;51.038;13.786;2023-07-13T12:08:31;2.22;;;1.00;;
15116;SDS011;7659;51.038;13.786;2023-07-13T12:11:02;6.53;;;1.45;;
15116;SDS011;7659;51.038;13.786;2023-07-13T12:13:34;4.43;;;1.20;;
15116;SDS011;7659;51.038;13.786;2023-07-13T12:16:00;5.43;;;1.10;;
15116;SDS011;7659;51.038;13.786;2023-07-13T12:18:28;3.25;;;0.98;;
15116;SDS011;7659;51.038;13.786;2023-07-13T12:20:55;15.23;;;1.40;;
15116;SDS011;7659;51.038;13.786;2023-07-13T12:23:23;8.30;;;1.63;;
15116;SDS011;7659;51.038;13.786;2023-07-13T12:25:50;5.07;;;1.35;;
15116;SDS011;7659;51.038;13.786;2023-07-13T12:28:19;6.85;;;1.30;;
15116;SDS011;7659;51.038;13.786;2023-07-13T12:30:47;4.72;;;1.35;;
15116;SDS011;7659;51.038;13.786;2023-07-13T12:33:13;6.18;;;1.40;;
15116;SDS011;7659;51.038;13.786;2023-07-13T12:35:40;3.58;;;1.33;;
15116;SDS011;7659;51.038;13.786;2023-07-13T12:38:07;4.40;;;1.50;;
15116;SDS011;7659;51.038;13.786;2023-07-13T12:40:34;3.83;;;1.40;;
15116;SDS011;7659;51.038;13.786;2023-07-13T12:43:00;10.13;;;1.48;;
15116;SDS011;7659;51.038;13.786;2023-07-13T12:45:27;3.13;;;1.10;;
15116;SDS011;7659;51.038;13.786;2023-07-13T12:47:54;3.63;;;1.17;;
15116;SDS011;7659;51.038;13.786;2023-07-13T12:50:21;4.68;;;1.15;;
15116;SDS011;7659;51.038;13.786;2023-07-13T12:52:50;4.38;;;1.15;;
15116;SDS011;7659;51.038;13.786;2023-07-13T12:55:17;6.05;;;1.13;;
15116;SDS011;7659;51.038;13.786;2023-07-13T12:57:54;4.97;;;1.60;;
15116;SDS011;7659;51.038;13.786;2023-07-13T13:02:50;5.13;;;1.30;;
15116;SDS011;7659;51.038;13.786;2023-07-13T13:05:16;5.40;;;1.40;;
15116;SDS011;7659;51.038;13.786;2023-07-13T13:07:41;4.25;;;1.10;;
15116;SDS011;7659;51.038;13.786;2023-07-13T13:10:13;4.35;;;1.40;;
15116;SDS011;7659;51.038;13.786;2023-07-13T13:12:39;4.93;;;1.23;;
15116;SDS011;7659;51.038;13.786;2023-07-13T13:15:08;4.55;;;1.38;;
15116;SDS011;7659;51.038;13.786;2023-07-13T13:17:33;3.75;;;1.23;;
15116;SDS011;7659;51.038;13.786;2023-07-13T13:19:59;3.67;;;1.13;;
15116;SDS011;7659;51.038;13.786;2023-07-13T13:22:25;4.75;;;1.20;;
15116;SDS011;7659;51.038;13.786;2023-07-13T13:24:50;3.60;;;1.30;;
15116;SDS011;7659;51.038;13.786;2023-07-13T13:27:22;4.13;;;1.20;;
15116;SDS011;7659;51.038;13.786;2023-07-13T13:29:49;4.28;;;1.10;;
15116;SDS011;7659;51.038;13.786;2023-07-13T13:32:16;4.75;;;1.05;;
15116;SDS011;7659;51.038;13.786;2023-07-13T13:34:42;4.30;;;0.98;;
15116;SDS011;7659;51.038;13.786;2023-07-13T13:37:25;5.57;;;1.65;;
15116;SDS011;7659;51.038;13.786;2023-07-13T13:39:51;2.70;;;1.00;;
15116;SDS011;7659;51.038;13.786;2023-07-13T13:42:18;5.40;;;0.80;;
15116;SDS011;7659;51.038;13.786;2023-07-13T13:44:46;2.80;;;1.20;;
15116;SDS011;7659;51.038;13.786;2023-07-13T13:47:32;5.82;;;1.20;;
15116;SDS011;7659;51.038;13.786;2023-07-13T13:49:58;2.22;;;1.00;;
15116;SDS011;7659;51.038;13.786;2023-07-13T13:52:24;4.40;;;1.45;;
15116;SDS011;7659;51.038;13.786;2023-07-13T13:54:50;2.25;;;1.00;;
15116;SDS011;7659;51.038;13.786;2023-07-13T13:57:21;3.17;;;1.10;;
15116;SDS011;7659;51.038;13.786;2023-07-13T13:59:48;4.50;;;1.13;;
15116;SDS011;7659;51.038;13.786;2023-07-13T14:02:24;3.08;;;1.10;;
15116;SDS011;7659;51.038;13.786;2023-07-13T14:04:52;4.05;;;1.10;;
15116;SDS011;7659;51.038;13.786;2023-07-13T14:07:19;7.35;;;1.48;;
15116;SDS011;7659;51.038;13.786;2023-07-13T14:09:44;5.50;;;1.10;;
15116;SDS011;7659;51.038;13.786;2023-07-13T14:12:10;5.13;;;1.10;;
15116;SDS011;7659;51.038;13.786;2023-07-13T14:14:37;2.92;;;1.13;;
15116;SDS011;7659;51.038;13.786;2023-07-13T14:17:04;2.35;;;1.10;;
15116;SDS011;7659;51.038;13.786;2023-07-13T14:19:29;5.40;;;1.48;;
15116;SDS011;7659;51.038;13.786;2023-07-13T14:21:55;4.20;;;1.50;;
15116;SDS011;7659;51.038;13.786;2023-07-13T14:24:20;7.35;;;1.50;;
15116;SDS011;7659;51.038;13.786;2023-07-13T14:26:46;2.63;;;1.35;;
15116;SDS011;7659;51.038;13.786;2023-07-13T14:29:16;5.68;;;1.50;;
15116;SDS011;7659;51.038;13.786;2023-07-13T14:31:43;3.00;;;1.48;;
15116;SDS011;7659;51.038;13.786;2023-07-13T14:34:11;4.97;;;1.63;;
15116;SDS011;7659;51.038;13.786;2023-07-13T14:36:42;6.22;;;1.85;;
15116;SDS011;7659;51.038;13.786;2023-07-13T14:39:14;5.78;;;1.88;;
15116;SDS011;7659;51.038;13.786;2023-07-13T14:41:40;3.50;;;1.67;;
15116;SDS011;7659;51.038;13.786;2023-07-13T14:44:15;4.88;;;1.60;;
15116;SDS011;7659;51.038;13.786;2023-07-13T14:46:42;5.00;;;1.45;;
15116;SDS011;7659;51.038;13.786;2023-07-13T14:51:52;3.78;;;1.42;;
15116;SDS011;7659;51.038;13.786;2023-07-13T14:54:17;4.97;;;1.15;;
15116;SDS011;7659;51.038;13.786;2023-07-13T14:56:43;6.05;;;1.50;;
15116;SDS011;7659;51.038;13.786;2023-07-13T14:59:08;3.42;;;1.20;;
15116;SDS011;7659;51.038;13.786;2023-07-13T15:01:34;4.95;;;1.25;;
15116;SDS011;7659;51.038;13.786;2023-07-13T15:04:00;3.35;;;1.10;;
15116;SDS011;7659;51.038;13.786;2023-07-13T15:06:27;3.97;;;1.05;;
15116;SDS011;7659;51.038;13.786;2023-07-13T15:08:52;3.22;;;0.98;;
15116;SDS011;7659;51.038;13.786;2023-07-13T15:11:17;7.85;;;1.25;;
15116;SDS011;7659;51.038;13.786;2023-07-13T15:13:43;4.32;;;1.10;;
15116;SDS011;7659;51.038;13.786;2023-07-13T15:16:18;3.70;;;1.20;;
15116;SDS011;7659;51.038;13.786;2023-07-13T15:18:46;3.63;;;1.08;;
15116;SDS011;7659;51.038;13.786;2023-07-13T15:21:18;2.88;;;0.82;;
15116;SDS011;7659;51.038;13.786;2023-07-13T15:23:44;3.40;;;1.10;;
15116;SDS011;7659;51.038;13.786;2023-07-13T15:26:19;4.97;;;1.30;;
15116;SDS011;7659;51.038;13.786;2023-07-13T15:28:45;6.57;;;1.10;;
15116;SDS011;7659;51.038;13.786;2023-07-13T15:31:18;4.22;;;0.82;;
15116;SDS011;7659;51.038;13.786;2023-07-13T15:33:44;5.90;;;0.85;;